sensor_id;sensor_type;location;lat;lon;timestamp;pressure;altitude;pressure_sealevel;temperature;humidity
77323;BME280;66384;51.052;9.850;2024-02-26T00:00:06;97104.23;;;1.25;75.02
77323;BME280;66384;51.052;9.850;2024-02-26T00:03:03;97104.95;;;1.22;74.99
77323;BME280;66384;51.052;9.850;2024-02-26T00:05:39;97104.54;;;1.20;75.17
77323;BME280;66384;51.052;9.850;2024-02-26T00:08:16;97101.55;;;1.17;75.22
77323;BME280;66384;51.052;9.850;2024-02-26T00:10:52;97101.94;;;1.19;75.30
77323;BME280;66384;51.052;9.850;2024-02-26T00:13:29;97100.48;;;1.20;75.39
77323;BME280;66384;51.052;9.850;2024-02-26T00:16:06;97097.17;;;1.22;75.33
77323;BME280;66384;51.052;9.850;2024-02-26T00:18:42;97100.02;;;1.22;75.45
77323;BME280;66384;51.052;9.850;2024-02-26T00:21:22;97099.18;;;1.22;75.46
77323;BME280;66384;51.052;9.850;2024-02-26T00:23:59;97094.25;;;1.21;75.55
77323;BME280;66384;51.052;9.850;2024-02-26T00:26:36;97094.29;;;1.22;75.59
77323;BME280;66384;51.052;9.850;2024-02-26T00:29:13;97098.58;;;1.23;75.62
77323;BME280;66384;51.052;9.850;2024-02-26T00:31:49;97091.02;;;1.25;75.80
77323;BME280;66384;51.052;9.850;2024-02-26T00:34:26;97090.27;;;1.27;75.68
77323;BME280;66384;51.052;9.850;2024-02-26T00:37:02;97096.13;;;1.26;75.64
77323;BME280;66384;51.052;9.850;2024-02-26T00:39:39;97090.17;;;1.21;75.70
77323;BME280;66384;51.052;9.850;2024-02-26T00:42:15;97092.00;;;1.20;75.78
77323;BME280;66384;51.052;9.850;2024-02-26T00:44:52;97088.81;;;1.21;75.84
77323;BME280;66384;51.052;9.850;2024-02-26T00:47:28;97089.53;;;1.22;75.92
77323;BME280;66384;51.052;9.850;2024-02-26T00:50:05;97086.86;;;1.23;75.80
77323;BME280;66384;51.052;9.850;2024-02-26T00:52:42;97088.55;;;1.23;75.82
77323;BME280;66384;51.052;9.850;2024-02-26T00:55:18;97086.06;;;1.24;75.86
77323;BME280;66384;51.052;9.850;2024-02-26T00:57:55;97089.81;;;1.24;75.86
77323;BME280;66384;51.052;9.850;2024-02-26T01:00:31;97084.07;;;1.25;75.95
77323;BME280;66384;51.052;9.850;2024-02-26T01:03:07;97084.77;;;1.26;75.93
77323;BME280;66384;51.052;9.850;2024-02-26T01:05:44;97084.64;;;1.27;75.94
77323;BME280;66384;51.052;9.850;2024-02-26T01:08:21;97085.73;;;1.29;76.07
77323;BME280;66384;51.052;9.850;2024-02-26T01:10:57;97088.70;;;1.31;76.05
77323;BME280;66384;51.052;9.850;2024-02-26T01:13:34;97084.00;;;1.32;75.97
77323;BME280;66384;51.052;9.850;2024-02-26T01:16:11;97084.88;;;1.33;75.90
77323;BME280;66384;51.052;9.850;2024-02-26T01:18:47;97081.17;;;1.34;75.89
77323;BME280;66384;51.052;9.850;2024-02-26T01:21:24;97078.80;;;1.33;75.80
77323;BME280;66384;51.052;9.850;2024-02-26T01:24:02;97071.79;;;1.32;75.78
77323;BME280;66384;51.052;9.850;2024-02-26T01:26:39;97067.86;;;1.31;75.85
77323;BME280;66384;51.052;9.850;2024-02-26T01:29:16;97064.99;;;1.32;76.04
77323;BME280;66384;51.052;9.850;2024-02-26T01:31:52;97066.38;;;1.32;76.05
77323;BME280;66384;51.052;9.850;2024-02-26T01:34:28;97064.90;;;1.29;76.14
77323;BME280;66384;51.052;9.850;2024-02-26T01:37:05;97061.66;;;1.28;76.14
77323;BME280;66384;51.052;9.850;2024-02-26T01:39:42;97060.98;;;1.28;76.14
77323;BME280;66384;51.052;9.850;2024-02-26T01:42:18;97059.95;;;1.27;76.03
77323;BME280;66384;51.052;9.850;2024-02-26T01:44:54;97060.57;;;1.27;75.96
77323;BME280;66384;51.052;9.850;2024-02-26T01:47:31;97059.91;;;1.26;76.08
77323;BME280;66384;51.052;9.850;2024-02-26T01:50:09;97057.67;;;1.26;75.96
77323;BME280;66384;51.052;9.850;2024-02-26T01:52:43;97059.03;;;1.26;75.91
77323;BME280;66384;51.052;9.850;2024-02-26T01:55:20;97058.52;;;1.25;75.99
77323;BME280;66384;51.052;9.850;2024-02-26T01:57:59;97067.63;;;1.24;76.01
77323;BME280;66384;51.052;9.850;2024-02-26T02:00:36;97067.08;;;1.23;75.97
77323;BME280;66384;51.052;9.850;2024-02-26T02:03:13;97069.73;;;1.22;76.07
77323;BME280;66384;51.052;9.850;2024-02-26T02:05:49;97071.20;;;1.21;76.15
77323;BME280;66384;51.052;9.850;2024-02-26T02:08:26;97069.15;;;1.20;76.23
77323;BME280;66384;51.052;9.850;2024-02-26T02:11:03;97069.46;;;1.19;76.28
77323;BME280;66384;51.052;9.850;2024-02-26T02:13:40;97070.12;;;1.19;76.16
77323;BME280;66384;51.052;9.850;2024-02-26T02:16:16;97071.41;;;1.17;76.13
77323;BME280;66384;51.052;9.850;2024-02-26T02:18:53;97070.21;;;1.17;76.25
77323;BME280;66384;51.052;9.850;2024-02-26T02:21:30;97078.02;;;1.18;76.36
77323;BME280;66384;51.052;9.850;2024-02-26T02:24:07;97079.81;;;1.20;76.50
77323;BME280;66384;51.052;9.850;2024-02-26T02:26:43;97078.00;;;1.22;76.53
77323;BME280;66384;51.052;9.850;2024-02-26T02:29:20;97078.02;;;1.22;76.44
77323;BME280;66384;51.052;9.850;2024-02-26T02:31:56;97078.46;;;1.20;76.38
77323;BME280;66384;51.052;9.850;2024-02-26T02:34:30;97078.86;;;1.22;76.52
77323;BME280;66384;51.052;9.850;2024-02-26T02:37:08;97084.45;;;1.22;76.58
77323;BME280;66384;51.052;9.850;2024-02-26T02:39:44;97076.28;;;1.21;76.52
77323;BME280;66384;51.052;9.850;2024-02-26T02:42:20;97075.11;;;1.21;76.60
77323;BME280;66384;51.052;9.850;2024-02-26T02:44:58;97082.62;;;1.23;76.59
77323;BME280;66384;51.052;9.850;2024-02-26T02:47:34;97081.86;;;1.25;76.92
77323;BME280;66384;51.052;9.850;2024-02-26T02:50:12;97075.50;;;1.27;76.85
77323;BME280;66384;51.052;9.850;2024-02-26T02:52:48;97077.91;;;1.28;76.82
77323;BME280;66384;51.052;9.850;2024-02-26T02:55:25;97071.83;;;1.29;76.71
77323;BME280;66384;51.052;9.850;2024-02-26T02:58:02;97070.67;;;1.29;76.79
77323;BME280;66384;51.052;9.850;2024-02-26T03:00:38;97071.91;;;1.30;76.73
77323;BME280;66384;51.052;9.850;2024-02-26T03:03:15;97071.75;;;1.31;76.92
77323;BME280;66384;51.052;9.850;2024-02-26T03:05:51;97075.48;;;1.31;76.92
77323;BME280;66384;51.052;9.850;2024-02-26T03:08:28;97070.27;;;1.33;76.98
77323;BME280;66384;51.052;9.850;2024-02-26T03:11:05;97069.86;;;1.35;76.94
77323;BME280;66384;51.052;9.850;2024-02-26T03:13:42;97067.52;;;1.36;76.89
77323;BME280;66384;51.052;9.850;2024-02-26T03:16:19;97065.52;;;1.36;76.98
77323;BME280;66384;51.052;9.850;2024-02-26T03:18:56;97061.95;;;1.36;77.03
77323;BME280;66384;51.052;9.850;2024-02-26T03:21:32;97062.11;;;1.36;77.07
77323;BME280;66384;51.052;9.850;2024-02-26T03:24:09;97061.08;;;1.36;77.17
77323;BME280;66384;51.052;9.850;2024-02-26T03:26:46;97056.71;;;1.37;77.22
77323;BME280;66384;51.052;9.850;2024-02-26T03:29:22;97057.45;;;1.39;77.29
77323;BME280;66384;51.052;9.850;2024-02-26T03:31:59;97055.65;;;1.40;77.33
77323;BME280;66384;51.052;9.850;2024-02-26T03:34:35;97055.90;;;1.42;77.36
77323;BME280;66384;51.052;9.850;2024-02-26T03:37:12;97055.72;;;1.42;77.36
77323;BME280;66384;51.052;9.850;2024-02-26T03:39:49;97050.45;;;1.42;77.45
77323;BME280;66384;51.052;9.850;2024-02-26T03:42:26;97050.02;;;1.44;77.52
77323;BME280;66384;51.052;9.850;2024-02-26T03:45:02;97047.32;;;1.45;77.51
77323;BME280;66384;51.052;9.850;2024-02-26T03:47:40;97045.85;;;1.46;77.58
77323;BME280;66384;51.052;9.850;2024-02-26T03:50:17;97047.58;;;1.47;77.62
77323;BME280;66384;51.052;9.850;2024-02-26T03:52:53;97048.52;;;1.50;77.76
77323;BME280;66384;51.052;9.850;2024-02-26T03:55:30;97042.59;;;1.50;77.68
77323;BME280;66384;51.052;9.850;2024-02-26T03:58:07;97041.23;;;1.50;77.78
77323;BME280;66384;51.052;9.850;2024-02-26T04:00:43;97040.20;;;1.49;77.73
77323;BME280;66384;51.052;9.850;2024-02-26T04:03:21;97047.50;;;1.50;77.78
77323;BME280;66384;51.052;9.850;2024-02-26T04:05:57;97054.30;;;1.51;77.93
77323;BME280;66384;51.052;9.850;2024-02-26T04:08:34;97052.10;;;1.51;78.01
77323;BME280;66384;51.052;9.850;2024-02-26T04:11:11;97048.90;;;1.51;78.19
77323;BME280;66384;51.052;9.850;2024-02-26T04:13:51;97052.78;;;1.51;78.29
77323;BME280;66384;51.052;9.850;2024-02-26T04:16:27;97052.95;;;1.51;78.34
77323;BME280;66384;51.052;9.850;2024-02-26T04:19:03;97055.71;;;1.52;78.45
77323;BME280;66384;51.052;9.850;2024-02-26T04:21:40;97054.60;;;1.54;78.51
77323;BME280;66384;51.052;9.850;2024-02-26T04:24:17;97056.20;;;1.56;78.55
77323;BME280;66384;51.052;9.850;2024-02-26T04:26:54;97057.81;;;1.59;78.71
77323;BME280;66384;51.052;9.850;2024-02-26T04:29:31;97062.95;;;1.60;78.81
77323;BME280;66384;51.052;9.850;2024-02-26T04:32:08;97062.95;;;1.60;78.90
77323;BME280;66384;51.052;9.850;2024-02-26T04:34:44;97061.30;;;1.61;78.98
77323;BME280;66384;51.052;9.850;2024-02-26T04:37:21;97059.30;;;1.63;79.20
77323;BME280;66384;51.052;9.850;2024-02-26T04:39:57;97061.30;;;1.67;79.29
77323;BME280;66384;51.052;9.850;2024-02-26T04:42:34;97055.63;;;1.69;79.26
77323;BME280;66384;51.052;9.850;2024-02-26T04:45:11;97058.27;;;1.72;79.31
77323;BME280;66384;51.052;9.850;2024-02-26T04:47:47;97062.91;;;1.74;79.33
77323;BME280;66384;51.052;9.850;2024-02-26T04:50:24;97064.17;;;1.76;79.55
77323;BME280;66384;51.052;9.850;2024-02-26T04:53:00;97062.77;;;1.79;79.48
77323;BME280;66384;51.052;9.850;2024-02-26T04:55:36;97077.27;;;1.83;79.46
77323;BME280;66384;51.052;9.850;2024-02-26T04:58:13;97082.61;;;1.85;79.55
77323;BME280;66384;51.052;9.850;2024-02-26T05:00:49;97082.19;;;1.88;79.76
77323;BME280;66384;51.052;9.850;2024-02-26T05:03:25;97075.15;;;1.90;79.82
77323;BME280;66384;51.052;9.850;2024-02-26T05:06:03;97073.38;;;1.93;79.85
77323;BME280;66384;51.052;9.850;2024-02-26T05:08:40;97071.73;;;1.95;79.78
77323;BME280;66384;51.052;9.850;2024-02-26T05:11:17;97073.50;;;1.96;79.84
77323;BME280;66384;51.052;9.850;2024-02-26T05:13:54;97081.66;;;1.97;79.89
77323;BME280;66384;51.052;9.850;2024-02-26T05:16:30;97079.27;;;1.97;79.93
77323;BME280;66384;51.052;9.850;2024-02-26T05:19:07;97079.27;;;1.96;80.01
77323;BME280;66384;51.052;9.850;2024-02-26T05:21:44;97080.30;;;1.97;80.04
77323;BME280;66384;51.052;9.850;2024-02-26T05:24:22;97067.23;;;1.97;80.06
77323;BME280;66384;51.052;9.850;2024-02-26T05:26:59;97059.77;;;1.97;80.08
77323;BME280;66384;51.052;9.850;2024-02-26T05:29:36;97060.84;;;1.98;80.13
77323;BME280;66384;51.052;9.850;2024-02-26T05:32:13;97065.30;;;2.00;80.25
77323;BME280;66384;51.052;9.850;2024-02-26T05:34:49;97073.22;;;2.04;80.35
77323;BME280;66384;51.052;9.850;2024-02-26T05:37:26;97075.40;;;2.08;80.43
77323;BME280;66384;51.052;9.850;2024-02-26T05:40:03;97090.23;;;2.10;80.55
77323;BME280;66384;51.052;9.850;2024-02-26T05:42:40;97098.30;;;2.13;80.38
77323;BME280;66384;51.052;9.850;2024-02-26T05:45:18;97101.30;;;2.17;80.28
77323;BME280;66384;51.052;9.850;2024-02-26T05:47:52;97100.09;;;2.21;80.30
77323;BME280;66384;51.052;9.850;2024-02-26T05:50:29;97103.46;;;2.26;80.33
77323;BME280;66384;51.052;9.850;2024-02-26T05:53:06;97099.67;;;2.29;80.16
77323;BME280;66384;51.052;9.850;2024-02-26T05:55:43;97094.33;;;2.32;80.04
77323;BME280;66384;51.052;9.850;2024-02-26T05:58:19;97090.90;;;2.36;80.11
77323;BME280;66384;51.052;9.850;2024-02-26T06:00:56;97099.98;;;2.39;79.94
77323;BME280;66384;51.052;9.850;2024-02-26T06:03:30;97100.38;;;2.41;79.83
77323;BME280;66384;51.052;9.850;2024-02-26T06:06:08;97104.55;;;2.44;79.73
77323;BME280;66384;51.052;9.850;2024-02-26T06:08:44;97104.79;;;2.46;79.80
77323;BME280;66384;51.052;9.850;2024-02-26T06:11:21;97103.14;;;2.47;79.84
77323;BME280;66384;51.052;9.850;2024-02-26T06:13:58;97107.29;;;2.49;79.85
77323;BME280;66384;51.052;9.850;2024-02-26T06:16:37;97107.71;;;2.53;79.83
77323;BME280;66384;51.052;9.850;2024-02-26T06:19:14;97115.27;;;2.55;79.68
77323;BME280;66384;51.052;9.850;2024-02-26T06:21:51;97114.51;;;2.58;79.68
77323;BME280;66384;51.052;9.850;2024-02-26T06:24:27;97113.92;;;2.61;79.67
77323;BME280;66384;51.052;9.850;2024-02-26T06:27:04;97114.19;;;2.64;79.60
77323;BME280;66384;51.052;9.850;2024-02-26T06:29:40;97111.16;;;2.65;79.48
77323;BME280;66384;51.052;9.850;2024-02-26T06:32:17;97118.66;;;2.66;79.56
77323;BME280;66384;51.052;9.850;2024-02-26T06:34:53;97123.29;;;2.67;79.54
77323;BME280;66384;51.052;9.850;2024-02-26T06:37:30;97132.67;;;2.69;79.64
77323;BME280;66384;51.052;9.850;2024-02-26T06:40:08;97129.50;;;2.70;79.72
77323;BME280;66384;51.052;9.850;2024-02-26T06:42:45;97131.39;;;2.72;79.74
77323;BME280;66384;51.052;9.850;2024-02-26T06:45:21;97131.27;;;2.73;80.15
77323;BME280;66384;51.052;9.850;2024-02-26T06:47:58;97133.24;;;2.76;80.11
77323;BME280;66384;51.052;9.850;2024-02-26T06:50:34;97131.33;;;2.81;80.10
77323;BME280;66384;51.052;9.850;2024-02-26T06:53:11;97137.71;;;2.84;80.06
77323;BME280;66384;51.052;9.850;2024-02-26T06:55:47;97139.52;;;2.87;80.17
77323;BME280;66384;51.052;9.850;2024-02-26T06:58:24;97141.32;;;2.90;80.11
77323;BME280;66384;51.052;9.850;2024-02-26T07:01:01;97147.33;;;2.93;80.21
77323;BME280;66384;51.052;9.850;2024-02-26T07:03:39;97149.27;;;2.95;80.15
77323;BME280;66384;51.052;9.850;2024-02-26T07:06:17;97146.15;;;2.99;80.18
77323;BME280;66384;51.052;9.850;2024-02-26T07:08:53;97150.67;;;3.02;80.23
77323;BME280;66384;51.052;9.850;2024-02-26T07:11:30;97155.34;;;3.05;80.28
77323;BME280;66384;51.052;9.850;2024-02-26T07:14:06;97159.02;;;3.09;80.46
77323;BME280;66384;51.052;9.850;2024-02-26T07:16:42;97168.34;;;3.13;80.40
77323;BME280;66384;51.052;9.850;2024-02-26T07:19:19;97166.09;;;3.17;80.51
77323;BME280;66384;51.052;9.850;2024-02-26T07:21:56;97165.67;;;3.21;80.53
77323;BME280;66384;51.052;9.850;2024-02-26T07:24:34;97168.67;;;3.24;80.72
77323;BME280;66384;51.052;9.850;2024-02-26T07:27:11;97172.30;;;3.26;80.61
77323;BME280;66384;51.052;9.850;2024-02-26T07:29:47;97173.10;;;3.30;80.68
77323;BME280;66384;51.052;9.850;2024-02-26T07:32:24;97185.14;;;3.35;80.66
77323;BME280;66384;51.052;9.850;2024-02-26T07:35:00;97186.48;;;3.40;80.65
77323;BME280;66384;51.052;9.850;2024-02-26T07:37:37;97185.30;;;3.46;80.53
77323;BME280;66384;51.052;9.850;2024-02-26T07:40:15;97182.27;;;3.53;80.47
77323;BME280;66384;51.052;9.850;2024-02-26T07:42:52;97187.08;;;3.60;80.38
77323;BME280;66384;51.052;9.850;2024-02-26T07:45:29;97179.48;;;3.68;80.24
77323;BME280;66384;51.052;9.850;2024-02-26T07:48:06;97177.64;;;3.76;80.25
77323;BME280;66384;51.052;9.850;2024-02-26T07:50:42;97178.55;;;3.83;80.14
77323;BME280;66384;51.052;9.850;2024-02-26T07:53:19;97176.84;;;3.90;80.08
77323;BME280;66384;51.052;9.850;2024-02-26T07:55:55;97174.95;;;3.95;80.06
77323;BME280;66384;51.052;9.850;2024-02-26T07:58:32;97178.50;;;4.00;80.13
77323;BME280;66384;51.052;9.850;2024-02-26T08:01:08;97180.52;;;4.05;80.01
77323;BME280;66384;51.052;9.850;2024-02-26T08:03:45;97180.28;;;4.10;79.92
77323;BME280;66384;51.052;9.850;2024-02-26T08:06:22;97184.18;;;4.16;79.85
77323;BME280;66384;51.052;9.850;2024-02-26T08:08:58;97183.33;;;4.22;80.02
77323;BME280;66384;51.052;9.850;2024-02-26T08:11:35;97188.48;;;4.30;79.73
77323;BME280;66384;51.052;9.850;2024-02-26T08:14:11;97193.09;;;4.37;79.66
77323;BME280;66384;51.052;9.850;2024-02-26T08:16:48;97193.27;;;4.44;79.60
77323;BME280;66384;51.052;9.850;2024-02-26T08:19:25;97201.95;;;4.50;79.46
77323;BME280;66384;51.052;9.850;2024-02-26T08:22:02;97201.40;;;4.56;79.19
77323;BME280;66384;51.052;9.850;2024-02-26T08:24:39;97198.46;;;4.61;79.06
77323;BME280;66384;51.052;9.850;2024-02-26T08:27:15;97202.64;;;4.65;78.78
77323;BME280;66384;51.052;9.850;2024-02-26T08:29:55;97199.35;;;4.69;78.68
77323;BME280;66384;51.052;9.850;2024-02-26T08:32:31;97200.15;;;4.74;78.44
77323;BME280;66384;51.052;9.850;2024-02-26T08:35:09;97197.70;;;4.79;78.41
77323;BME280;66384;51.052;9.850;2024-02-26T08:37:47;97200.02;;;4.83;78.39
77323;BME280;66384;51.052;9.850;2024-02-26T08:40:24;97197.92;;;4.87;78.47
77323;BME280;66384;51.052;9.850;2024-02-26T08:43:01;97198.89;;;4.92;78.38
77323;BME280;66384;51.052;9.850;2024-02-26T08:45:37;97202.20;;;4.95;78.28
77323;BME280;66384;51.052;9.850;2024-02-26T08:48:14;97204.17;;;4.99;78.36
77323;BME280;66384;51.052;9.850;2024-02-26T08:50:51;97206.16;;;5.04;78.20
77323;BME280;66384;51.052;9.850;2024-02-26T08:53:27;97204.56;;;5.09;78.28
77323;BME280;66384;51.052;9.850;2024-02-26T08:56:14;97206.41;;;5.15;78.13
77323;BME280;66384;51.052;9.850;2024-02-26T08:58:53;97206.51;;;5.19;77.79
77323;BME280;66384;51.052;9.850;2024-02-26T09:01:30;97204.74;;;5.24;77.73
77323;BME280;66384;51.052;9.850;2024-02-26T09:04:07;97209.81;;;5.30;77.70
77323;BME280;66384;51.052;9.850;2024-02-26T09:06:44;97203.27;;;5.34;77.56
77323;BME280;66384;51.052;9.850;2024-02-26T09:09:20;97199.82;;;5.39;77.46
77323;BME280;66384;51.052;9.850;2024-02-26T09:11:59;97199.39;;;5.44;77.49
77323;BME280;66384;51.052;9.850;2024-02-26T09:14:36;97197.80;;;5.49;77.38
77323;BME280;66384;51.052;9.850;2024-02-26T09:17:13;97190.75;;;5.54;77.27
77323;BME280;66384;51.052;9.850;2024-02-26T09:19:50;97185.39;;;5.58;77.18
77323;BME280;66384;51.052;9.850;2024-02-26T09:22:27;97184.95;;;5.62;77.10
77323;BME280;66384;51.052;9.850;2024-02-26T09:25:04;97187.05;;;5.64;76.92
77323;BME280;66384;51.052;9.850;2024-02-26T09:27:40;97183.01;;;5.67;76.70
77323;BME280;66384;51.052;9.850;2024-02-26T09:30:17;97191.45;;;5.71;76.70
77323;BME280;66384;51.052;9.850;2024-02-26T09:32:55;97193.74;;;5.75;76.46
77323;BME280;66384;51.052;9.850;2024-02-26T09:35:31;97194.68;;;5.79;76.42
77323;BME280;66384;51.052;9.850;2024-02-26T09:38:08;97193.04;;;5.82;76.23
77323;BME280;66384;51.052;9.850;2024-02-26T09:40:45;97193.99;;;5.87;76.07
77323;BME280;66384;51.052;9.850;2024-02-26T09:43:24;97198.35;;;5.91;76.10
77323;BME280;66384;51.052;9.850;2024-02-26T09:46:04;97198.67;;;5.98;75.84
77323;BME280;66384;51.052;9.850;2024-02-26T09:48:42;97199.09;;;6.01;75.76
77323;BME280;66384;51.052;9.850;2024-02-26T09:51:19;97201.41;;;6.07;75.49
77323;BME280;66384;51.052;9.850;2024-02-26T09:53:57;97201.89;;;6.13;75.42
77323;BME280;66384;51.052;9.850;2024-02-26T09:56:41;97201.64;;;6.19;75.23
77323;BME280;66384;51.052;9.850;2024-02-26T09:59:42;97203.55;;;6.28;75.14
77323;BME280;66384;51.052;9.850;2024-02-26T10:02:20;97208.84;;;6.38;74.82
77323;BME280;66384;51.052;9.850;2024-02-26T10:04:57;97214.84;;;6.49;74.93
77323;BME280;66384;51.052;9.850;2024-02-26T10:07:36;97216.59;;;6.60;74.38
77323;BME280;66384;51.052;9.850;2024-02-26T10:10:15;97222.73;;;6.70;74.22
77323;BME280;66384;51.052;9.850;2024-02-26T10:12:53;97224.10;;;6.80;74.10
77323;BME280;66384;51.052;9.850;2024-02-26T10:15:29;97225.34;;;6.92;73.87
77323;BME280;66384;51.052;9.850;2024-02-26T10:18:09;97227.45;;;7.05;73.56
77323;BME280;66384;51.052;9.850;2024-02-26T10:21:03;97225.53;;;7.15;73.15
77323;BME280;66384;51.052;9.850;2024-02-26T10:23:40;97227.88;;;7.21;72.68
77323;BME280;66384;51.052;9.850;2024-02-26T10:26:20;97232.08;;;7.29;72.60
77323;BME280;66384;51.052;9.850;2024-02-26T10:29:02;97237.30;;;7.34;72.16
77323;BME280;66384;51.052;9.850;2024-02-26T10:31:38;97237.85;;;7.37;71.96
77323;BME280;66384;51.052;9.850;2024-02-26T10:34:18;97241.49;;;7.41;71.96
77323;BME280;66384;51.052;9.850;2024-02-26T10:36:53;97247.04;;;7.44;71.72
77323;BME280;66384;51.052;9.850;2024-02-26T10:39:30;97249.13;;;7.47;71.80
77323;BME280;66384;51.052;9.850;2024-02-26T10:42:04;97251.89;;;7.49;71.79
77323;BME280;66384;51.052;9.850;2024-02-26T10:44:45;97252.29;;;7.54;71.74
77323;BME280;66384;51.052;9.850;2024-02-26T10:47:22;97254.38;;;7.56;71.59
77323;BME280;66384;51.052;9.850;2024-02-26T10:50:01;97254.95;;;7.60;71.44
77323;BME280;66384;51.052;9.850;2024-02-26T10:52:39;97252.27;;;7.63;71.36
77323;BME280;66384;51.052;9.850;2024-02-26T10:55:18;97254.37;;;7.66;71.27
77323;BME280;66384;51.052;9.850;2024-02-26T10:57:58;97256.13;;;7.70;71.29
77323;BME280;66384;51.052;9.850;2024-02-26T11:00:36;97253.63;;;7.75;71.51
77323;BME280;66384;51.052;9.850;2024-02-26T11:03:15;97258.65;;;7.80;71.37
77323;BME280;66384;51.052;9.850;2024-02-26T11:05:54;97263.31;;;7.82;71.24
77323;BME280;66384;51.052;9.850;2024-02-26T11:08:28;97265.91;;;7.85;71.29
77323;BME280;66384;51.052;9.850;2024-02-26T11:11:07;97263.55;;;7.87;70.95
77323;BME280;66384;51.052;9.850;2024-02-26T11:13:50;97264.23;;;7.87;70.85
77323;BME280;66384;51.052;9.850;2024-02-26T11:16:28;97260.65;;;7.88;70.79
77323;BME280;66384;51.052;9.850;2024-02-26T11:19:08;97265.80;;;7.88;70.59
77323;BME280;66384;51.052;9.850;2024-02-26T11:21:47;97267.50;;;7.89;70.63
77323;BME280;66384;51.052;9.850;2024-02-26T11:24:24;97262.55;;;7.89;70.33
77323;BME280;66384;51.052;9.850;2024-02-26T11:27:04;97263.38;;;7.87;70.32
77323;BME280;66384;51.052;9.850;2024-02-26T11:29:46;97265.08;;;7.86;70.37
77323;BME280;66384;51.052;9.850;2024-02-26T11:32:24;97263.37;;;7.86;70.44
77323;BME280;66384;51.052;9.850;2024-02-26T11:35:04;97261.51;;;7.88;70.36
77323;BME280;66384;51.052;9.850;2024-02-26T11:37:41;97259.13;;;7.89;70.27
77323;BME280;66384;51.052;9.850;2024-02-26T11:40:28;97261.41;;;7.93;70.33
77323;BME280;66384;51.052;9.850;2024-02-26T11:43:05;97258.86;;;7.94;70.17
77323;BME280;66384;51.052;9.850;2024-02-26T11:45:55;97258.52;;;7.95;70.20
77323;BME280;66384;51.052;9.850;2024-02-26T11:48:34;97254.92;;;7.95;69.92
77323;BME280;66384;51.052;9.850;2024-02-26T11:51:12;97264.20;;;7.96;69.97
77323;BME280;66384;51.052;9.850;2024-02-26T11:53:51;97272.79;;;7.99;70.08
77323;BME280;66384;51.052;9.850;2024-02-26T11:56:28;97274.30;;;7.97;69.40
77323;BME280;66384;51.052;9.850;2024-02-26T11:59:10;97275.48;;;7.96;69.03
77323;BME280;66384;51.052;9.850;2024-02-26T12:01:48;97272.73;;;7.95;69.01
77323;BME280;66384;51.052;9.850;2024-02-26T12:04:27;97274.95;;;7.94;69.01
77323;BME280;66384;51.052;9.850;2024-02-26T12:07:06;97282.44;;;7.92;69.12
77323;BME280;66384;51.052;9.850;2024-02-26T12:09:44;97290.14;;;7.91;69.08
77323;BME280;66384;51.052;9.850;2024-02-26T12:12:24;97282.10;;;7.91;69.17
77323;BME280;66384;51.052;9.850;2024-02-26T12:15:04;97281.06;;;7.91;69.16
77323;BME280;66384;51.052;9.850;2024-02-26T12:17:43;97280.52;;;7.89;69.20
77323;BME280;66384;51.052;9.850;2024-02-26T12:20:25;97283.04;;;7.86;69.32
77323;BME280;66384;51.052;9.850;2024-02-26T12:23:02;97282.14;;;7.83;69.50
77323;BME280;66384;51.052;9.850;2024-02-26T12:25:39;97282.66;;;7.82;69.63
77323;BME280;66384;51.052;9.850;2024-02-26T12:28:17;97283.67;;;7.82;69.80
77323;BME280;66384;51.052;9.850;2024-02-26T12:30:55;97283.50;;;7.81;69.66
77323;BME280;66384;51.052;9.850;2024-02-26T12:33:33;97288.29;;;7.82;69.67
77323;BME280;66384;51.052;9.850;2024-02-26T12:36:11;97284.18;;;7.81;69.56
77323;BME280;66384;51.052;9.850;2024-02-26T12:38:48;97281.79;;;7.82;69.79
77323;BME280;66384;51.052;9.850;2024-02-26T12:41:25;97278.38;;;7.82;69.69
77323;BME280;66384;51.052;9.850;2024-02-26T12:44:04;97279.80;;;7.85;70.34
77323;BME280;66384;51.052;9.850;2024-02-26T12:46:40;97283.46;;;7.91;70.11
77323;BME280;66384;51.052;9.850;2024-02-26T12:49:19;97285.56;;;7.95;69.74
77323;BME280;66384;51.052;9.850;2024-02-26T12:51:56;97284.58;;;7.98;69.79
77323;BME280;66384;51.052;9.850;2024-02-26T12:54:36;97296.10;;;8.01;69.78
77323;BME280;66384;51.052;9.850;2024-02-26T12:57:14;97296.31;;;8.04;69.64
77323;BME280;66384;51.052;9.850;2024-02-26T12:59:48;97295.48;;;8.06;69.64
77323;BME280;66384;51.052;9.850;2024-02-26T13:02:25;97299.79;;;8.09;69.52
77323;BME280;66384;51.052;9.850;2024-02-26T13:05:02;97302.39;;;8.11;69.58
77323;BME280;66384;51.052;9.850;2024-02-26T13:07:43;97307.35;;;8.11;69.44
77323;BME280;66384;51.052;9.850;2024-02-26T13:10:20;97300.52;;;8.12;69.35
77323;BME280;66384;51.052;9.850;2024-02-26T13:13:01;97301.58;;;8.13;69.28
77323;BME280;66384;51.052;9.850;2024-02-26T13:15:38;97306.86;;;8.12;69.09
77323;BME280;66384;51.052;9.850;2024-02-26T13:18:15;97309.09;;;8.12;69.24
77323;BME280;66384;51.052;9.850;2024-02-26T13:20:52;97316.96;;;8.12;69.24
77323;BME280;66384;51.052;9.850;2024-02-26T13:23:29;97322.27;;;8.12;69.02
77323;BME280;66384;51.052;9.850;2024-02-26T13:26:06;97329.48;;;8.12;68.83
77323;BME280;66384;51.052;9.850;2024-02-26T13:28:44;97329.63;;;8.12;69.16
77323;BME280;66384;51.052;9.850;2024-02-26T13:31:21;97335.10;;;8.11;69.07
77323;BME280;66384;51.052;9.850;2024-02-26T13:33:58;97341.76;;;8.10;69.00
77323;BME280;66384;51.052;9.850;2024-02-26T13:36:35;97351.55;;;8.12;68.85
77323;BME280;66384;51.052;9.850;2024-02-26T13:39:11;97356.38;;;8.13;68.89
77323;BME280;66384;51.052;9.850;2024-02-26T13:41:57;97363.23;;;8.15;68.86
77323;BME280;66384;51.052;9.850;2024-02-26T13:44:34;97364.98;;;8.16;68.93
77323;BME280;66384;51.052;9.850;2024-02-26T13:47:12;97365.80;;;8.15;68.96
77323;BME280;66384;51.052;9.850;2024-02-26T13:49:49;97363.24;;;8.16;68.80
77323;BME280;66384;51.052;9.850;2024-02-26T13:52:27;97364.80;;;8.16;69.01
77323;BME280;66384;51.052;9.850;2024-02-26T13:55:06;97366.18;;;8.16;69.30
77323;BME280;66384;51.052;9.850;2024-02-26T13:57:43;97368.25;;;8.17;69.31
77323;BME280;66384;51.052;9.850;2024-02-26T14:00:21;97368.75;;;8.17;69.12
77323;BME280;66384;51.052;9.850;2024-02-26T14:02:58;97368.05;;;8.16;69.18